sensor_id;sensor_type;location;lat;lon;timestamp;P1;durP1;ratioP1;P2;durP2;ratioP2
28844;SDS011;15976;47.938;7.758;2023-06-22T00:01:20;13.35;;;9.18;;
28844;SDS011;15976;47.938;7.758;2023-06-22T00:03:49;13.18;;;8.90;;
28844;SDS011;15976;47.938;7.758;2023-06-22T00:06:16;17.25;;;9.55;;
28844;SDS011;15976;47.938;7.758;2023-06-22T00:08:43;11.35;;;8.75;;
28844;SDS011;15976;47.938;7.758;2023-06-22T00:11:11;14.20;;;9.50;;
28844;SDS011;15976;47.938;7.758;2023-06-22T00:13:38;16.30;;;9.45;;
28844;SDS011;15976;47.938;7.758;2023-06-22T00:16:05;14.05;;;10.05;;
28844;SDS011;15976;47.938;7.758;2023-06-22T00:18:32;12.35;;;9.35;;
28844;SDS011;15976;47.938;7.758;2023-06-22T00:20:59;13.05;;;9.70;;
28844;SDS011;15976;47.938;7.758;2023-06-22T00:23:26;13.95;;;9.70;;
28844;SDS011;15976;47.938;7.758;2023-06-22T00:25:53;12.60;;;9.27;;
28844;SDS011;15976;47.938;7.758;2023-06-22T00:28:20;13.15;;;9.75;;
28844;SDS011;15976;47.938;7.758;2023-06-22T00:30:48;14.38;;;9.43;;
28844;SDS011;15976;47.938;7.758;2023-06-22T00:33:17;13.57;;;9.90;;
28844;SDS011;15976;47.938;7.758;2023-06-22T00:35:44;12.20;;;9.45;;
28844;SDS011;15976;47.938;7.758;2023-06-22T00:38:11;12.43;;;9.48;;
28844;SDS011;15976;47.938;7.758;2023-06-22T00:40:41;14.20;;;9.80;;
28844;SDS011;15976;47.938;7.758;2023-06-22T00:43:08;12.73;;;10.40;;
28844;SDS011;15976;47.938;7.758;2023-06-22T00:45:35;15.57;;;10.60;;
28844;SDS011;15976;47.938;7.758;2023-06-22T00:48:02;12.13;;;10.40;;
28844;SDS011;15976;47.938;7.758;2023-06-22T00:50:31;12.77;;;9.55;;
28844;SDS011;15976;47.938;7.758;2023-06-22T00:53:05;16.58;;;11.07;;
28844;SDS011;15976;47.938;7.758;2023-06-22T00:55:42;15.63;;;10.20;;
28844;SDS011;15976;47.938;7.758;2023-06-22T00:58:11;15.18;;;10.80;;
28844;SDS011;15976;47.938;7.758;2023-06-22T01:00:40;18.67;;;11.00;;
28844;SDS011;15976;47.938;7.758;2023-06-22T01:03:08;12.20;;;9.50;;
28844;SDS011;15976;47.938;7.758;2023-06-22T01:05:37;14.55;;;10.45;;
28844;SDS011;15976;47.938;7.758;2023-06-22T01:13:26;16.77;;;11.02;;
28844;SDS011;15976;47.938;7.758;2023-06-22T01:18:45;14.88;;;10.75;;
28844;SDS011;15976;47.938;7.758;2023-06-22T01:21:16;15.20;;;10.15;;
28844;SDS011;15976;47.938;7.758;2023-06-22T01:26:37;14.43;;;10.25;;
28844;SDS011;15976;47.938;7.758;2023-06-22T01:29:06;17.80;;;10.88;;
28844;SDS011;15976;47.938;7.758;2023-06-22T01:31:38;17.50;;;10.57;;
28844;SDS011;15976;47.938;7.758;2023-06-22T01:34:07;13.10;;;10.70;;
28844;SDS011;15976;47.938;7.758;2023-06-22T01:36:35;13.57;;;10.85;;
28844;SDS011;15976;47.938;7.758;2023-06-22T01:39:04;14.18;;;10.30;;
28844;SDS011;15976;47.938;7.758;2023-06-22T01:41:37;14.60;;;10.32;;
28844;SDS011;15976;47.938;7.758;2023-06-22T01:44:05;13.80;;;10.57;;
28844;SDS011;15976;47.938;7.758;2023-06-22T01:46:35;15.27;;;10.73;;
28844;SDS011;15976;47.938;7.758;2023-06-22T01:49:03;16.42;;;10.65;;
28844;SDS011;15976;47.938;7.758;2023-06-22T01:51:32;13.35;;;10.07;;
28844;SDS011;15976;47.938;7.758;2023-06-22T01:53:59;13.45;;;9.88;;
28844;SDS011;15976;47.938;7.758;2023-06-22T01:56:27;14.35;;;9.48;;
28844;SDS011;15976;47.938;7.758;2023-06-22T02:01:43;14.45;;;9.75;;
28844;SDS011;15976;47.938;7.758;2023-06-22T02:04:26;13.95;;;10.55;;
28844;SDS011;15976;47.938;7.758;2023-06-22T02:06:58;14.60;;;9.80;;
28844;SDS011;15976;47.938;7.758;2023-06-22T02:09:27;15.35;;;9.88;;
28844;SDS011;15976;47.938;7.758;2023-06-22T02:11:56;16.00;;;9.82;;
28844;SDS011;15976;47.938;7.758;2023-06-22T02:14:24;13.68;;;9.50;;
28844;SDS011;15976;47.938;7.758;2023-06-22T02:16:53;14.82;;;9.45;;
28844;SDS011;15976;47.938;7.758;2023-06-22T02:19:23;12.80;;;9.70;;
28844;SDS011;15976;47.938;7.758;2023-06-22T02:21:51;14.50;;;9.57;;
28844;SDS011;15976;47.938;7.758;2023-06-22T02:24:19;11.88;;;9.27;;
28844;SDS011;15976;47.938;7.758;2023-06-22T02:26:49;15.88;;;9.45;;
28844;SDS011;15976;47.938;7.758;2023-06-22T02:29:17;13.68;;;10.07;;
28844;SDS011;15976;47.938;7.758;2023-06-22T02:31:44;16.88;;;9.90;;
28844;SDS011;15976;47.938;7.758;2023-06-22T02:34:11;17.75;;;9.85;;
28844;SDS011;15976;47.938;7.758;2023-06-22T02:36:45;13.18;;;10.00;;
28844;SDS011;15976;47.938;7.758;2023-06-22T02:39:21;13.50;;;9.60;;
28844;SDS011;15976;47.938;7.758;2023-06-22T02:41:53;14.07;;;9.52;;
28844;SDS011;15976;47.938;7.758;2023-06-22T02:44:21;15.18;;;9.32;;
28844;SDS011;15976;47.938;7.758;2023-06-22T02:46:48;16.60;;;9.75;;
28844;SDS011;15976;47.938;7.758;2023-06-22T02:49:16;13.80;;;10.25;;
28844;SDS011;15976;47.938;7.758;2023-06-22T02:51:47;15.10;;;9.25;;
28844;SDS011;15976;47.938;7.758;2023-06-22T02:54:18;16.80;;;9.93;;
28844;SDS011;15976;47.938;7.758;2023-06-22T02:56:47;11.38;;;9.27;;
28844;SDS011;15976;47.938;7.758;2023-06-22T02:59:14;15.55;;;9.98;;
28844;SDS011;15976;47.938;7.758;2023-06-22T03:01:43;17.30;;;10.13;;
28844;SDS011;15976;47.938;7.758;2023-06-22T03:04:18;14.13;;;9.77;;
28844;SDS011;15976;47.938;7.758;2023-06-22T03:06:45;13.75;;;10.40;;
28844;SDS011;15976;47.938;7.758;2023-06-22T03:09:17;13.68;;;9.90;;
28844;SDS011;15976;47.938;7.758;2023-06-22T03:11:45;17.80;;;10.70;;
28844;SDS011;15976;47.938;7.758;2023-06-22T03:14:12;16.27;;;9.80;;
28844;SDS011;15976;47.938;7.758;2023-06-22T03:16:39;13.30;;;10.05;;
28844;SDS011;15976;47.938;7.758;2023-06-22T03:19:07;14.80;;;10.20;;
28844;SDS011;15976;47.938;7.758;2023-06-22T03:21:34;16.35;;;10.90;;
28844;SDS011;15976;47.938;7.758;2023-06-22T03:24:05;14.73;;;9.85;;
28844;SDS011;15976;47.938;7.758;2023-06-22T03:26:33;14.40;;;10.65;;
28844;SDS011;15976;47.938;7.758;2023-06-22T03:29:00;16.55;;;10.23;;
28844;SDS011;15976;47.938;7.758;2023-06-22T03:31:29;14.52;;;10.05;;
28844;SDS011;15976;47.938;7.758;2023-06-22T03:33:56;14.52;;;9.68;;
28844;SDS011;15976;47.938;7.758;2023-06-22T03:36:23;18.40;;;10.70;;
28844;SDS011;15976;47.938;7.758;2023-06-22T03:38:50;16.98;;;9.80;;
28844;SDS011;15976;47.938;7.758;2023-06-22T03:41:18;13.32;;;10.15;;
28844;SDS011;15976;47.938;7.758;2023-06-22T03:43:46;16.25;;;10.07;;
28844;SDS011;15976;47.938;7.758;2023-06-22T03:46:14;17.42;;;9.90;;
28844;SDS011;15976;47.938;7.758;2023-06-22T03:48:42;21.02;;;10.25;;
28844;SDS011;15976;47.938;7.758;2023-06-22T03:51:09;18.25;;;9.93;;
28844;SDS011;15976;47.938;7.758;2023-06-22T03:53:36;15.73;;;9.80;;
28844;SDS011;15976;47.938;7.758;2023-06-22T03:56:03;16.88;;;10.52;;
28844;SDS011;15976;47.938;7.758;2023-06-22T03:58:30;16.67;;;10.68;;
28844;SDS011;15976;47.938;7.758;2023-06-22T04:00:59;16.88;;;9.93;;
28844;SDS011;15976;47.938;7.758;2023-06-22T04:03:26;15.80;;;9.98;;
28844;SDS011;15976;47.938;7.758;2023-06-22T04:05:53;17.92;;;10.25;;
28844;SDS011;15976;47.938;7.758;2023-06-22T04:08:21;14.13;;;9.55;;
28844;SDS011;15976;47.938;7.758;2023-06-22T04:10:48;15.15;;;9.65;;
28844;SDS011;15976;47.938;7.758;2023-06-22T04:13:14;13.93;;;9.85;;
28844;SDS011;15976;47.938;7.758;2023-06-22T04:15:41;19.42;;;9.20;;
28844;SDS011;15976;47.938;7.758;2023-06-22T04:18:08;17.92;;;9.82;;
28844;SDS011;15976;47.938;7.758;2023-06-22T04:20:36;12.80;;;9.40;;
28844;SDS011;15976;47.938;7.758;2023-06-22T04:23:03;19.30;;;10.40;;
28844;SDS011;15976;47.938;7.758;2023-06-22T04:25:30;19.60;;;9.75;;
28844;SDS011;15976;47.938;7.758;2023-06-22T04:27:57;17.92;;;10.82;;
28844;SDS011;15976;47.938;7.758;2023-06-22T04:30:24;16.33;;;10.40;;
28844;SDS011;15976;47.938;7.758;2023-06-22T04:32:51;18.23;;;10.00;;
28844;SDS011;15976;47.938;7.758;2023-06-22T04:35:27;18.67;;;10.55;;
28844;SDS011;15976;47.938;7.758;2023-06-22T04:37:59;20.20;;;10.27;;
28844;SDS011;15976;47.938;7.758;2023-06-22T04:40:26;15.02;;;9.45;;
28844;SDS011;15976;47.938;7.758;2023-06-22T04:42:53;19.30;;;10.10;;
28844;SDS011;15976;47.938;7.758;2023-06-22T04:45:20;14.73;;;10.40;;
28844;SDS011;15976;47.938;7.758;2023-06-22T04:47:47;17.08;;;10.30;;
28844;SDS011;15976;47.938;7.758;2023-06-22T04:50:15;14.88;;;9.98;;
28844;SDS011;15976;47.938;7.758;2023-06-22T04:52:43;17.83;;;11.07;;
28844;SDS011;15976;47.938;7.758;2023-06-22T04:55:12;21.40;;;10.68;;
28844;SDS011;15976;47.938;7.758;2023-06-22T04:57:41;18.52;;;10.70;;
28844;SDS011;15976;47.938;7.758;2023-06-22T05:00:15;15.75;;;10.52;;
28844;SDS011;15976;47.938;7.758;2023-06-22T05:02:44;17.15;;;10.45;;
28844;SDS011;15976;47.938;7.758;2023-06-22T05:05:12;18.05;;;11.30;;
28844;SDS011;15976;47.938;7.758;2023-06-22T05:07:43;16.85;;;11.30;;
28844;SDS011;15976;47.938;7.758;2023-06-22T05:10:14;17.35;;;11.05;;
28844;SDS011;15976;47.938;7.758;2023-06-22T05:12:41;17.63;;;11.30;;
28844;SDS011;15976;47.938;7.758;2023-06-22T05:15:09;15.73;;;11.48;;
28844;SDS011;15976;47.938;7.758;2023-06-22T05:17:42;23.60;;;12.13;;
28844;SDS011;15976;47.938;7.758;2023-06-22T05:23:34;15.77;;;12.63;;
28844;SDS011;15976;47.938;7.758;2023-06-22T05:26:01;19.50;;;11.93;;
28844;SDS011;15976;47.938;7.758;2023-06-22T05:28:28;22.33;;;11.65;;
28844;SDS011;15976;47.938;7.758;2023-06-22T05:30:55;19.25;;;11.88;;
28844;SDS011;15976;47.938;7.758;2023-06-22T05:33:23;21.38;;;12.65;;
28844;SDS011;15976;47.938;7.758;2023-06-22T05:35:50;17.15;;;12.95;;
28844;SDS011;15976;47.938;7.758;2023-06-22T05:38:17;20.38;;;13.05;;
28844;SDS011;15976;47.938;7.758;2023-06-22T05:40:44;19.20;;;12.60;;
28844;SDS011;15976;47.938;7.758;2023-06-22T05:43:11;19.83;;;13.40;;
28844;SDS011;15976;47.938;7.758;2023-06-22T05:45:39;22.58;;;15.32;;
28844;SDS011;15976;47.938;7.758;2023-06-22T05:48:06;21.50;;;14.48;;
28844;SDS011;15976;47.938;7.758;2023-06-22T05:50:33;20.60;;;14.02;;
28844;SDS011;15976;47.938;7.758;2023-06-22T05:53:00;19.17;;;14.73;;
28844;SDS011;15976;47.938;7.758;2023-06-22T05:55:27;23.38;;;15.27;;
28844;SDS011;15976;47.938;7.758;2023-06-22T05:57:54;21.95;;;14.73;;
28844;SDS011;15976;47.938;7.758;2023-06-22T06:00:21;20.85;;;15.40;;
28844;SDS011;15976;47.938;7.758;2023-06-22T06:02:51;21.42;;;14.13;;
28844;SDS011;15976;47.938;7.758;2023-06-22T06:05:18;23.50;;;14.63;;
28844;SDS011;15976;47.938;7.758;2023-06-22T06:07:46;16.40;;;12.98;;
28844;SDS011;15976;47.938;7.758;2023-06-22T06:10:13;17.27;;;13.70;;
28844;SDS011;15976;47.938;7.758;2023-06-22T06:12:41;21.48;;;14.90;;
28844;SDS011;15976;47.938;7.758;2023-06-22T06:15:08;21.20;;;14.60;;
28844;SDS011;15976;47.938;7.758;2023-06-22T06:17:45;25.42;;;18.02;;
28844;SDS011;15976;47.938;7.758;2023-06-22T06:20:13;26.27;;;17.88;;
28844;SDS011;15976;47.938;7.758;2023-06-22T06:22:40;27.05;;;16.45;;
28844;SDS011;15976;47.938;7.758;2023-06-22T06:25:09;28.95;;;18.38;;
28844;SDS011;15976;47.938;7.758;2023-06-22T06:27:36;22.75;;;18.52;;
28844;SDS011;15976;47.938;7.758;2023-06-22T06:30:04;26.58;;;19.02;;
28844;SDS011;15976;47.938;7.758;2023-06-22T06:32:31;24.08;;;18.90;;
28844;SDS011;15976;47.938;7.758;2023-06-22T06:34:58;23.52;;;18.10;;
28844;SDS011;15976;47.938;7.758;2023-06-22T06:37:26;28.88;;;19.42;;
28844;SDS011;15976;47.938;7.758;2023-06-22T06:39:53;26.40;;;18.60;;
28844;SDS011;15976;47.938;7.758;2023-06-22T06:42:20;28.40;;;19.20;;
28844;SDS011;15976;47.938;7.758;2023-06-22T06:44:47;26.77;;;19.38;;
28844;SDS011;15976;47.938;7.758;2023-06-22T06:47:14;30.42;;;21.23;;
28844;SDS011;15976;47.938;7.758;2023-06-22T06:49:41;29.45;;;20.55;;
28844;SDS011;15976;47.938;7.758;2023-06-22T06:52:08;29.88;;;20.92;;
28844;SDS011;15976;47.938;7.758;2023-06-22T06:54:35;28.65;;;20.73;;
28844;SDS011;15976;47.938;7.758;2023-06-22T06:57:02;31.58;;;20.95;;
28844;SDS011;15976;47.938;7.758;2023-06-22T06:59:31;25.27;;;19.92;;
28844;SDS011;15976;47.938;7.758;2023-06-22T07:01:58;28.38;;;19.20;;
28844;SDS011;15976;47.938;7.758;2023-06-22T07:04:37;24.90;;;18.45;;
28844;SDS011;15976;47.938;7.758;2023-06-22T07:07:08;25.23;;;18.63;;
28844;SDS011;15976;47.938;7.758;2023-06-22T07:09:35;25.98;;;17.10;;
28844;SDS011;15976;47.938;7.758;2023-06-22T07:12:02;24.20;;;15.85;;
28844;SDS011;15976;47.938;7.758;2023-06-22T07:14:30;23.25;;;15.27;;
28844;SDS011;15976;47.938;7.758;2023-06-22T07:16:58;20.88;;;14.27;;
28844;SDS011;15976;47.938;7.758;2023-06-22T07:19:25;20.50;;;13.85;;
28844;SDS011;15976;47.938;7.758;2023-06-22T07:21:54;24.50;;;14.18;;
28844;SDS011;15976;47.938;7.758;2023-06-22T07:24:21;21.17;;;12.85;;
28844;SDS011;15976;47.938;7.758;2023-06-22T07:26:50;21.25;;;12.88;;
28844;SDS011;15976;47.938;7.758;2023-06-22T07:29:20;23.00;;;14.35;;
28844;SDS011;15976;47.938;7.758;2023-06-22T07:31:48;23.40;;;16.40;;
28844;SDS011;15976;47.938;7.758;2023-06-22T07:34:18;26.02;;;18.23;;
28844;SDS011;15976;47.938;7.758;2023-06-22T07:36:52;25.02;;;17.90;;
28844;SDS011;15976;47.938;7.758;2023-06-22T07:39:19;24.60;;;18.25;;
28844;SDS011;15976;47.938;7.758;2023-06-22T07:41:52;28.25;;;18.30;;
28844;SDS011;15976;47.938;7.758;2023-06-22T07:44:19;24.90;;;17.35;;
28844;SDS011;15976;47.938;7.758;2023-06-22T07:46:46;23.80;;;17.63;;
28844;SDS011;15976;47.938;7.758;2023-06-22T07:49:13;25.65;;;17.10;;
28844;SDS011;15976;47.938;7.758;2023-06-22T07:51:40;22.88;;;17.20;;
28844;SDS011;15976;47.938;7.758;2023-06-22T07:54:09;22.23;;;16.10;;
28844;SDS011;15976;47.938;7.758;2023-06-22T07:56:36;23.08;;;15.77;;
28844;SDS011;15976;47.938;7.758;2023-06-22T07:59:04;23.80;;;16.30;;
28844;SDS011;15976;47.938;7.758;2023-06-22T08:01:31;22.70;;;15.73;;
28844;SDS011;15976;47.938;7.758;2023-06-22T08:03:59;24.15;;;15.23;;
28844;SDS011;15976;47.938;7.758;2023-06-22T08:06:26;21.52;;;15.18;;
28844;SDS011;15976;47.938;7.758;2023-06-22T08:08:55;21.67;;;15.82;;
28844;SDS011;15976;47.938;7.758;2023-06-22T08:11:23;24.15;;;16.40;;
28844;SDS011;15976;47.938;7.758;2023-06-22T08:13:51;21.70;;;15.70;;
28844;SDS011;15976;47.938;7.758;2023-06-22T08:16:19;22.77;;;15.95;;
28844;SDS011;15976;47.938;7.758;2023-06-22T08:18:47;20.10;;;14.90;;
28844;SDS011;15976;47.938;7.758;2023-06-22T08:21:14;20.23;;;14.25;;
28844;SDS011;15976;47.938;7.758;2023-06-22T08:23:41;21.52;;;13.40;;
28844;SDS011;15976;47.938;7.758;2023-06-22T08:26:08;20.05;;;13.77;;
28844;SDS011;15976;47.938;7.758;2023-06-22T08:28:35;19.85;;;13.95;;
28844;SDS011;15976;47.938;7.758;2023-06-22T08:31:03;18.77;;;13.43;;
28844;SDS011;15976;47.938;7.758;2023-06-22T08:33:30;19.30;;;13.20;;
28844;SDS011;15976;47.938;7.758;2023-06-22T08:35:58;21.83;;;13.82;;
28844;SDS011;15976;47.938;7.758;2023-06-22T08:38:26;20.75;;;12.80;;
28844;SDS011;15976;47.938;7.758;2023-06-22T08:40:54;19.15;;;12.43;;
28844;SDS011;15976;47.938;7.758;2023-06-22T08:43:21;19.67;;;11.20;;
28844;SDS011;15976;47.938;7.758;2023-06-22T08:45:52;15.68;;;11.18;;
28844;SDS011;15976;47.938;7.758;2023-06-22T08:48:19;17.73;;;11.38;;
28844;SDS011;15976;47.938;7.758;2023-06-22T08:50:46;15.45;;;9.98;;
28844;SDS011;15976;47.938;7.758;2023-06-22T08:53:13;16.02;;;10.15;;
28844;SDS011;15976;47.938;7.758;2023-06-22T08:55:40;13.88;;;8.75;;
28844;SDS011;15976;47.938;7.758;2023-06-22T08:58:07;15.55;;;9.10;;
28844;SDS011;15976;47.938;7.758;2023-06-22T09:00:34;15.02;;;9.15;;
28844;SDS011;15976;47.938;7.758;2023-06-22T09:03:02;15.82;;;9.40;;
28844;SDS011;15976;47.938;7.758;2023-06-22T09:05:31;12.35;;;9.48;;
28844;SDS011;15976;47.938;7.758;2023-06-22T09:07:59;14.75;;;10.48;;
28844;SDS011;15976;47.938;7.758;2023-06-22T09:10:26;14.68;;;9.90;;
28844;SDS011;15976;47.938;7.758;2023-06-22T09:12:53;16.00;;;9.80;;
28844;SDS011;15976;47.938;7.758;2023-06-22T09:15:20;16.92;;;10.40;;
28844;SDS011;15976;47.938;7.758;2023-06-22T09:17:48;16.02;;;9.63;;
28844;SDS011;15976;47.938;7.758;2023-06-22T09:20:15;14.13;;;8.98;;
28844;SDS011;15976;47.938;7.758;2023-06-22T09:22:43;15.50;;;9.15;;
28844;SDS011;15976;47.938;7.758;2023-06-22T09:25:10;15.55;;;9.57;;
28844;SDS011;15976;47.938;7.758;2023-06-22T09:27:37;16.42;;;8.90;;
28844;SDS011;15976;47.938;7.758;2023-06-22T09:30:04;15.13;;;9.32;;
28844;SDS011;15976;47.938;7.758;2023-06-22T09:32:33;14.48;;;9.23;;
28844;SDS011;15976;47.938;7.758;2023-06-22T09:35:03;14.55;;;8.82;;
28844;SDS011;15976;47.938;7.758;2023-06-22T09:37:38;13.70;;;9.18;;
28844;SDS011;15976;47.938;7.758;2023-06-22T09:40:08;14.95;;;9.30;;
28844;SDS011;15976;47.938;7.758;2023-06-22T09:42:36;12.65;;;8.43;;
28844;SDS011;15976;47.938;7.758;2023-06-22T09:45:04;15.38;;;8.40;;
28844;SDS011;15976;47.938;7.758;2023-06-22T09:47:31;12.23;;;8.43;;
28844;SDS011;15976;47.938;7.758;2023-06-22T09:50:00;13.75;;;7.70;;
28844;SDS011;15976;47.938;7.758;2023-06-22T09:52:27;15.73;;;9.00;;
28844;SDS011;15976;47.938;7.758;2023-06-22T09:55:12;12.88;;;7.95;;
28844;SDS011;15976;47.938;7.758;2023-06-22T09:57:39;13.68;;;8.30;;
28844;SDS011;15976;47.938;7.758;2023-06-22T10:00:06;14.73;;;8.55;;
28844;SDS011;15976;47.938;7.758;2023-06-22T10:02:39;16.52;;;8.88;;
28844;SDS011;15976;47.938;7.758;2023-06-22T10:05:08;14.70;;;8.38;;
28844;SDS011;15976;47.938;7.758;2023-06-22T10:07:37;11.82;;;8.05;;
28844;SDS011;15976;47.938;7.758;2023-06-22T10:10:09;15.95;;;8.38;;
28844;SDS011;15976;47.938;7.758;2023-06-22T10:12:40;13.98;;;8.07;;
28844;SDS011;15976;47.938;7.758;2023-06-22T10:15:24;12.65;;;8.18;;
28844;SDS011;15976;47.938;7.758;2023-06-22T10:17:54;16.00;;;8.55;;
28844;SDS011;15976;47.938;7.758;2023-06-22T10:20:27;17.48;;;8.90;;
28844;SDS011;15976;47.938;7.758;2023-06-22T10:23:03;14.10;;;8.35;;
28844;SDS011;15976;47.938;7.758;2023-06-22T10:25:37;13.88;;;8.73;;
28844;SDS011;15976;47.938;7.758;2023-06-22T10:28:08;15.10;;;9.02;;
28844;SDS011;15976;47.938;7.758;2023-06-22T10:30:44;16.95;;;9.02;;
28844;SDS011;15976;47.938;7.758;2023-06-22T10:33:25;16.83;;;8.80;;
28844;SDS011;15976;47.938;7.758;2023-06-22T10:36:04;17.13;;;9.18;;
28844;SDS011;15976;47.938;7.758;2023-06-22T10:38:46;16.35;;;9.13;;
28844;SDS011;15976;47.938;7.758;2023-06-22T10:41:33;15.60;;;8.93;;
28844;SDS011;15976;47.938;7.758;2023-06-22T10:44:08;15.50;;;9.40;;
28844;SDS011;15976;47.938;7.758;2023-06-22T10:46:40;17.63;;;9.20;;
28844;SDS011;15976;47.938;7.758;2023-06-22T10:49:07;16.33;;;9.20;;
28844;SDS011;15976;47.938;7.758;2023-06-22T10:51:34;14.18;;;9.50;;
28844;SDS011;15976;47.938;7.758;2023-06-22T10:54:02;17.90;;;9.45;;
28844;SDS011;15976;47.938;7.758;2023-06-22T10:56:31;12.88;;;9.57;;
28844;SDS011;15976;47.938;7.758;2023-06-22T10:59:01;16.02;;;10.02;;
28844;SDS011;15976;47.938;7.758;2023-06-22T11:01:42;16.50;;;9.70;;
28844;SDS011;15976;47.938;7.758;2023-06-22T11:04:14;17.90;;;10.30;;
28844;SDS011;15976;47.938;7.758;2023-06-22T11:06:51;14.38;;;8.88;;
28844;SDS011;15976;47.938;7.758;2023-06-22T11:20:39;15.68;;;9.32;;
28844;SDS011;15976;47.938;7.758;2023-06-22T11:23:07;17.55;;;9.98;;
28844;SDS011;15976;47.938;7.758;2023-06-22T11:25:34;17.58;;;11.05;;
28844;SDS011;15976;47.938;7.758;2023-06-22T11:28:05;18.25;;;10.70;;
28844;SDS011;15976;47.938;7.758;2023-06-22T11:30:35;19.65;;;11.20;;
28844;SDS011;15976;47.938;7.758;2023-06-22T11:33:03;19.42;;;11.98;;
28844;SDS011;15976;47.938;7.758;2023-06-22T11:35:32;20.58;;;11.65;;
28844;SDS011;15976;47.938;7.758;2023-06-22T11:37:58;20.85;;;12.00;;
28844;SDS011;15976;47.938;7.758;2023-06-22T11:40:27;21.70;;;12.40;;
28844;SDS011;15976;47.938;7.758;2023-06-22T11:42:54;21.35;;;11.88;;
28844;SDS011;15976;47.938;7.758;2023-06-22T11:45:22;21.67;;;12.38;;
28844;SDS011;15976;47.938;7.758;2023-06-22T11:48:00;21.88;;;11.93;;
28844;SDS011;15976;47.938;7.758;2023-06-22T11:51:09;20.48;;;12.38;;
28844;SDS011;15976;47.938;7.758;2023-06-22T11:56:52;21.02;;;11.60;;
28844;SDS011;15976;47.938;7.758;2023-06-22T11:59:20;16.17;;;11.10;;
28844;SDS011;15976;47.938;7.758;2023-06-22T12:01:49;22.95;;;10.20;;
28844;SDS011;15976;47.938;7.758;2023-06-22T12:04:18;18.00;;;10.82;;
28844;SDS011;15976;47.938;7.758;2023-06-22T12:06:46;14.25;;;9.90;;
28844;SDS011;15976;47.938;7.758;2023-06-22T12:09:13;17.15;;;10.60;;
28844;SDS011;15976;47.938;7.758;2023-06-22T12:11:40;19.20;;;10.70;;
28844;SDS011;15976;47.938;7.758;2023-06-22T12:14:08;16.85;;;11.13;;
28844;SDS011;15976;47.938;7.758;2023-06-22T12:16:35;17.33;;;11.45;;
28844;SDS011;15976;47.938;7.758;2023-06-22T12:19:02;18.88;;;11.60;;
28844;SDS011;15976;47.938;7.758;2023-06-22T12:21:29;25.27;;;12.25;;
28844;SDS011;15976;47.938;7.758;2023-06-22T12:23:56;21.35;;;10.57;;
28844;SDS011;15976;47.938;7.758;2023-06-22T12:26:23;18.65;;;9.90;;
28844;SDS011;15976;47.938;7.758;2023-06-22T12:28:50;21.17;;;9.38;;
28844;SDS011;15976;47.938;7.758;2023-06-22T12:31:22;16.40;;;8.80;;
28844;SDS011;15976;47.938;7.758;2023-06-22T12:33:49;21.30;;;8.02;;
28844;SDS011;15976;47.938;7.758;2023-06-22T12:36:16;13.77;;;8.30;;
28844;SDS011;15976;47.938;7.758;2023-06-22T12:38:43;17.45;;;8.35;;
28844;SDS011;15976;47.938;7.758;2023-06-22T12:41:10;18.98;;;8.40;;
28844;SDS011;15976;47.938;7.758;2023-06-22T12:43:38;16.08;;;7.88;;
28844;SDS011;15976;47.938;7.758;2023-06-22T12:46:05;14.63;;;7.32;;
28844;SDS011;15976;47.938;7.758;2023-06-22T12:48:32;15.30;;;7.32;;
28844;SDS011;15976;47.938;7.758;2023-06-22T12:50:59;14.63;;;6.95;;
28844;SDS011;15976;47.938;7.758;2023-06-22T12:53:26;15.70;;;7.70;;
28844;SDS011;15976;47.938;7.758;2023-06-22T12:55:53;14.00;;;7.38;;
28844;SDS011;15976;47.938;7.758;2023-06-22T12:58:20;18.38;;;7.90;;
28844;SDS011;15976;47.938;7.758;2023-06-22T13:00:48;17.48;;;7.68;;
28844;SDS011;15976;47.938;7.758;2023-06-22T13:03:15;17.35;;;8.10;;
28844;SDS011;15976;47.938;7.758;2023-06-22T13:05:43;17.88;;;7.38;;
28844;SDS011;15976;47.938;7.758;2023-06-22T13:08:11;16.85;;;7.38;;
28844;SDS011;15976;47.938;7.758;2023-06-22T13:10:39;15.15;;;7.72;;
28844;SDS011;15976;47.938;7.758;2023-06-22T13:13:07;18.90;;;8.27;;
28844;SDS011;15976;47.938;7.758;2023-06-22T13:15:35;18.98;;;8.27;;
28844;SDS011;15976;47.938;7.758;2023-06-22T13:18:02;22.40;;;8.60;;
28844;SDS011;15976;47.938;7.758;2023-06-22T13:20:29;18.92;;;8.77;;
28844;SDS011;15976;47.938;7.758;2023-06-22T13:22:56;19.60;;;8.90;;
28844;SDS011;15976;47.938;7.758;2023-06-22T13:25:24;17.63;;;8.35;;
28844;SDS011;15976;47.938;7.758;2023-06-22T13:27:53;20.65;;;9.10;;
28844;SDS011;15976;47.938;7.758;2023-06-22T13:30:21;15.48;;;8.00;;
28844;SDS011;15976;47.938;7.758;2023-06-22T13:32:48;17.95;;;8.27;;
28844;SDS011;15976;47.938;7.758;2023-06-22T13:35:15;22.50;;;8.30;;
28844;SDS011;15976;47.938;7.758;2023-06-22T13:37:42;16.05;;;7.88;;
28844;SDS011;15976;47.938;7.758;2023-06-22T13:40:10;15.25;;;8.30;;
28844;SDS011;15976;47.938;7.758;2023-06-22T13:42:40;19.48;;;7.47;;
28844;SDS011;15976;47.938;7.758;2023-06-22T13:45:07;21.35;;;8.80;;
28844;SDS011;15976;47.938;7.758;2023-06-22T13:47:35;16.98;;;8.43;;
28844;SDS011;15976;47.938;7.758;2023-06-22T13:50:03;23.75;;;8.82;;
28844;SDS011;15976;47.938;7.758;2023-06-22T13:52:31;16.40;;;8.20;;
28844;SDS011;15976;47.938;7.758;2023-06-22T13:54:58;17.42;;;7.43;;
28844;SDS011;15976;47.938;7.758;2023-06-22T13:57:26;17.80;;;7.15;;
28844;SDS011;15976;47.938;7.758;2023-06-22T13:59:53;14.52;;;7.65;;
28844;SDS011;15976;47.938;7.758;2023-06-22T14:02:20;16.77;;;7.38;;
28844;SDS011;15976;47.938;7.758;2023-06-22T14:04:47;17.90;;;7.95;;
28844;SDS011;15976;47.938;7.758;2023-06-22T14:07:17;15.10;;;7.13;;
28844;SDS011;15976;47.938;7.758;2023-06-22T14:09:47;20.63;;;8.13;;
28844;SDS011;15976;47.938;7.758;2023-06-22T14:12:14;19.85;;;7.95;;
28844;SDS011;15976;47.938;7.758;2023-06-22T14:14:42;15.95;;;7.97;;
28844;SDS011;15976;47.938;7.758;2023-06-22T14:17:09;17.65;;;7.07;;
28844;SDS011;15976;47.938;7.758;2023-06-22T14:19:36;16.33;;;7.30;;
28844;SDS011;15976;47.938;7.758;2023-06-22T14:22:03;14.73;;;7.63;;
28844;SDS011;15976;47.938;7.758;2023-06-22T14:24:31;16.90;;;7.88;;
28844;SDS011;15976;47.938;7.758;2023-06-22T14:26:59;17.30;;;7.65;;
28844;SDS011;15976;47.938;7.758;2023-06-22T14:29:29;16.08;;;7.10;;
28844;SDS011;15976;47.938;7.758;2023-06-22T14:31:56;17.05;;;7.60;;
28844;SDS011;15976;47.938;7.758;2023-06-22T14:34:23;17.48;;;7.93;;
28844;SDS011;15976;47.938;7.758;2023-06-22T14:36:50;19.05;;;8.07;;
28844;SDS011;15976;47.938;7.758;2023-06-22T14:39:20;17.13;;;7.30;;
28844;SDS011;15976;47.938;7.758;2023-06-22T14:41:49;19.52;;;7.38;;
28844;SDS011;15976;47.938;7.758;2023-06-22T14:44:16;16.35;;;7.60;;
28844;SDS011;15976;47.938;7.758;2023-06-22T14:46:43;16.13;;;7.43;;
28844;SDS011;15976;47.938;7.758;2023-06-22T14:49:10;14.70;;;7.65;;
28844;SDS011;15976;47.938;7.758;2023-06-22T14:51:38;19.65;;;7.65;;
28844;SDS011;15976;47.938;7.758;2023-06-22T14:54:07;17.23;;;6.82;;
28844;SDS011;15976;47.938;7.758;2023-06-22T14:56:34;12.65;;;6.63;;
28844;SDS011;15976;47.938;7.758;2023-06-22T14:59:01;16.25;;;7.40;;
28844;SDS011;15976;47.938;7.758;2023-06-22T15:01:31;14.45;;;6.47;;
28844;SDS011;15976;47.938;7.758;2023-06-22T15:03:58;18.73;;;7.07;;
28844;SDS011;15976;47.938;7.758;2023-06-22T15:06:26;18.98;;;6.57;;
28844;SDS011;15976;47.938;7.758;2023-06-22T15:08:53;16.67;;;6.35;;